Time;durP1;ratioP1;P1;durP2;ratioP2;P2;SDS_P1;SDS_P2;PMS_P1;PMS_P2;Temp;Humidity;BMP_temperature;BMP_pressure;BME280_temperature;BME280_humidity;BME280_pressure;Samples;Min_cycle;Max_cycle;Signal;HPM_P1;HPM_P2
2023/04/08 00:00:06;;;;;;;24.98;18.58;;;;;;;5.61;100.00;100594.63;5085644;28;20020;-74
2023/04/08 00:02:32;;;;;;;24.27;17.10;;;;;;;5.53;100.00;100580.94;5084899;28;20600;-74
2023/04/08 00:04:58;;;;;;;24.52;18.73;;;;;;;5.56;100.00;100586.06;5083716;28;20376;-74
2023/04/08 00:07:23;;;;;;;24.80;18.17;;;;;;;5.57;100.00;100596.63;5085385;28;20043;-74
2023/04/08 00:09:49;;;;;;;25.52;17.42;;;;;;;5.62;100.00;100599.84;5085524;28;20024;-74
2023/04/08 00:12:14;;;;;;;26.38;18.23;;;;;;;5.49;100.00;100569.66;5085310;28;20107;-74
2023/04/08 00:14:40;;;;;;;28.52;19.50;;;;;;;5.58;100.00;100592.16;5065926;28;20171;-74
2023/04/08 00:17:06;;;;;;;25.10;17.27;;;;;;;5.61;100.00;100597.28;5066870;28;20020;-74
2023/04/08 00:19:32;;;;;;;26.13;18.83;;;;;;;5.57;100.00;100590.44;5082200;28;20070;-74
2023/04/08 00:21:58;;;;;;;26.67;19.20;;;;;;;5.51;100.00;100582.88;5066641;28;20043;-74
2023/04/08 00:24:24;;;;;;;24.30;18.15;;;;;;;5.59;100.00;100594.72;5066290;28;20032;-74
2023/04/08 00:26:50;;;;;;;25.15;18.13;;;;;;;5.50;100.00;100579.34;5084499;28;20024;-74
2023/04/08 00:29:16;;;;;;;24.73;17.65;;;;;;;5.54;100.00;100575.53;5085038;28;20028;-74
2023/04/08 00:31:41;;;;;;;26.27;18.33;;;;;;;5.63;100.00;100600.69;5084243;28;20047;-74
2023/04/08 00:34:07;;;;;;;23.23;17.08;;;;;;;5.63;100.00;100596.22;5085181;28;20055;-74
2023/04/08 00:36:34;;;;;;;25.17;18.48;;;;;;;5.67;100.00;100603.06;5083717;28;20027;-74
2023/04/08 00:39:00;;;;;;;27.27;19.00;;;;;;;5.66;100.00;100606.69;5084658;28;20024;-74
2023/04/08 00:41:26;;;;;;;22.35;16.67;;;;;;;5.64;100.00;100608.56;5084275;28;20081;-74
2023/04/08 00:43:52;;;;;;;23.80;17.92;;;;;;;5.66;100.00;100609.34;5084733;28;20027;-74
2023/04/08 00:46:17;;;;;;;22.52;17.60;;;;;;;5.63;100.00;100600.69;5084513;28;20040;-74
2023/04/08 00:48:43;;;;;;;23.35;17.55;;;;;;;5.67;100.00;100608.38;5083882;28;20550;-74
2023/04/08 00:51:08;;;;;;;25.65;17.48;;;;;;;5.64;100.00;100603.25;5084884;28;20102;-74
2023/04/08 00:53:34;;;;;;;23.38;16.90;;;;;;;5.62;100.00;100604.31;5086482;28;20031;-74
2023/04/08 00:56:00;;;;;;;24.98;18.60;;;;;;;5.62;100.00;100606.97;5092386;28;20024;-74
2023/04/08 00:58:26;;;;;;;27.25;18.98;;;;;;;5.68;100.00;100611.91;5082277;28;20036;-74
2023/04/08 01:01:02;;;;;;;22.63;17.27;;;;;;;5.67;100.00;100608.38;5081354;28;20142;-74
2023/04/08 01:03:49;;;;;;;20.42;16.10;;;;;;;5.66;100.00;100612.00;5081724;28;20054;-74
2023/04/08 01:06:26;;;;;;;23.95;17.38;;;;;;;5.71;100.00;100619.72;5084273;28;20034;-74
2023/04/08 01:08:53;;;;;;;22.13;16.75;;;;;;;5.73;100.00;100618.66;5084787;28;20024;-74
2023/04/08 01:11:20;;;;;;;22.58;16.67;;;;;;;5.62;100.00;100607.84;5085005;28;20064;-75
2023/04/08 01:13:51;;;;;;;26.05;17.80;;;;;;;5.59;100.00;100608.03;5082164;28;20035;-75
2023/04/08 01:16:17;;;;;;;24.73;17.13;;;;;;;5.67;100.00;100613.72;5085325;28;20567;-75
2023/04/08 01:18:45;;;;;;;25.45;17.27;;;;;;;5.69;100.00;100611.81;5088169;28;20020;-74
2023/04/08 01:21:13;;;;;;;23.50;16.67;;;;;;;5.59;100.00;100597.38;5088517;28;20481;-74
2023/04/08 01:23:42;;;;;;;24.67;18.02;;;;;;;5.71;100.00;100620.53;5070264;28;20023;-75
2023/04/08 01:26:11;;;;;;;25.83;17.00;;;;;;;5.61;100.00;100613.25;5088529;28;20391;-75
2023/04/08 01:28:39;;;;;;;26.80;17.83;;;;;;;5.63;100.00;100624.63;5088125;28;20074;-75
2023/04/08 01:31:06;;;;;;;24.77;17.48;;;;;;;5.59;100.00;100612.50;5088241;28;20505;-75
2023/04/08 01:33:32;;;;;;;25.90;17.67;;;;;;;5.57;100.00;100620.56;5088086;28;20111;-75
2023/04/08 01:35:59;;;;;;;24.80;17.50;;;;;;;5.51;100.00;100604.16;5070136;28;20042;-75
2023/04/08 01:38:27;;;;;;;24.60;18.13;;;;;;;5.59;100.00;100621.34;5088033;28;20031;-75
2023/04/08 01:40:54;;;;;;;23.05;17.10;;;;;;;5.55;100.00;100609.16;5088893;28;20467;-76
2023/04/08 01:43:20;;;;;;;29.05;19.10;;;;;;;5.54;100.00;100609.25;5088928;28;20032;-75
2023/04/08 01:45:47;;;;;;;25.83;18.60;;;;;;;5.53;100.00;100611.06;5090471;28;20058;-76
2023/04/08 01:48:14;;;;;;;28.08;19.23;;;;;;;5.50;100.00;100592.63;5089888;28;20020;-76
2023/04/08 01:50:44;;;;;;;21.75;16.17;;;;;;;5.59;100.00;100605.38;5092480;28;20356;-76
2023/04/08 01:53:11;;;;;;;24.63;17.50;;;;;;;5.59;100.00;100616.00;5074490;28;20027;-76
2023/04/08 01:55:39;;;;;;;23.98;16.75;;;;;;;5.60;100.00;100601.75;5075316;28;20024;-77
2023/04/08 01:58:07;;;;;;;26.80;18.15;;;;;;;5.57;100.00;100606.41;5092694;28;20035;-76
2023/04/08 02:00:34;;;;;;;25.40;17.85;;;;;;;5.56;100.00;100600.25;5075105;28;20032;-76
2023/04/08 02:03:01;;;;;;;23.20;16.98;;;;;;;5.60;100.00;100608.88;5089233;28;20537;-76
2023/04/08 02:05:27;;;;;;;23.85;16.60;;;;;;;5.59;100.00;100610.69;5089567;28;20085;-75
2023/04/08 02:07:52;;;;;;;22.98;17.35;;;;;;;5.57;100.00;100609.91;5069846;28;20031;-75
2023/04/08 02:10:18;;;;;;;29.05;17.73;;;;;;;5.55;100.00;100598.50;5086717;28;20024;-73
2023/04/08 02:12:44;;;;;;;23.20;16.65;;;;;;;5.56;100.00;100605.56;5086300;28;20127;-73
2023/04/08 02:15:11;;;;;;;22.58;16.98;;;;;;;5.56;100.00;100600.25;5086557;28;20554;-72
2023/04/08 02:17:45;;;;;;;27.70;18.45;;;;;;;5.59;100.00;100607.16;5068497;28;20119;-73
2023/04/08 02:20:25;;;;;;;22.17;16.33;;;;;;;5.43;100.00;100574.50;5068056;28;20425;-72
2023/04/08 02:22:57;;;;;;;23.92;17.02;;;;;;;5.52;100.00;100590.75;5085666;28;20380;-73
2023/04/08 02:25:24;;;;;;;25.83;18.42;;;;;;;5.52;100.00;100597.88;5067734;28;20790;-72
2023/04/08 02:27:52;;;;;;;22.85;17.05;;;;;;;5.48;100.00;100589.22;5067068;28;20475;-72
2023/04/08 02:30:19;;;;;;;26.35;17.83;;;;;;;5.48;100.00;100599.84;5085398;28;20039;-72
2023/04/08 02:32:46;;;;;;;24.95;17.73;;;;;;;5.41;100.00;100584.38;5085358;28;20024;-72
2023/04/08 02:35:14;;;;;;;26.30;18.17;;;;;;;5.44;100.00;100587.69;5067428;28;20118;-72
2023/04/08 02:37:40;;;;;;;22.35;16.63;;;;;;;5.46;100.00;100592.94;5085411;28;20123;-72
2023/04/08 02:40:26;;;;;;;25.27;17.67;;;;;;;5.45;100.00;100589.41;5067170;28;20115;-73
2023/04/08 02:42:53;;;;;;;26.75;18.05;;;;;;;5.41;100.00;100579.91;5086543;28;20055;-72
2023/04/08 02:45:19;;;;;;;25.20;17.63;;;;;;;5.32;100.00;100577.81;5069694;28;20036;-72
2023/04/08 02:47:44;;;;;;;24.70;17.40;;;;;;;5.31;100.00;100586.75;5087276;28;20043;-72
2023/04/08 02:50:10;;;;;;;26.02;18.38;;;;;;;5.41;100.00;100603.84;5071337;28;20048;-72
2023/04/08 02:52:35;;;;;;;25.92;17.63;;;;;;;5.37;100.00;100599.69;5086986;28;20032;-72
2023/04/08 02:55:01;;;;;;;26.63;18.08;;;;;;;5.35;100.00;100598.91;5091981;28;20061;-72
2023/04/08 02:57:26;;;;;;;26.42;16.83;;;;;;;5.33;100.00;100598.16;5088148;28;20111;-72
2023/04/08 02:59:52;;;;;;;26.95;18.83;;;;;;;5.35;100.00;100606.03;5088065;28;20031;-72
2023/04/08 03:02:17;;;;;;;27.08;18.20;;;;;;;5.21;100.00;100574.97;5068980;28;20079;-72
2023/04/08 03:04:43;;;;;;;28.15;18.23;;;;;;;5.31;100.00;100594.72;5073567;28;20063;-72
2023/04/08 03:07:08;;;;;;;28.15;18.48;;;;;;;5.37;100.00;100601.47;5086859;28;20020;-72
2023/04/08 03:09:34;;;;;;;23.15;17.15;;;;;;;5.25;100.00;100581.81;5088404;28;20020;-72
2023/04/08 03:12:00;;;;;;;26.58;18.15;;;;;;;5.39;100.00;100599.59;5069398;28;20027;-72
2023/04/08 03:14:25;;;;;;;29.05;18.00;;;;;;;5.33;100.00;100598.16;5086089;28;20511;-72
2023/04/08 03:16:50;;;;;;;25.50;18.55;;;;;;;5.23;100.00;100582.88;5074933;28;20052;-73
2023/04/08 03:19:16;;;;;;;23.45;16.77;;;;;;;5.36;100.00;100610.41;5089678;28;20035;-72
2023/04/08 03:21:41;;;;;;;23.83;16.95;;;;;;;5.38;100.00;100616.50;5069832;28;20024;-73
2023/04/08 03:24:07;;;;;;;27.77;18.38;;;;;;;5.40;100.00;100614.56;5070907;28;20085;-72
2023/04/08 03:26:32;;;;;;;26.58;18.35;;;;;;;5.40;100.00;100614.56;5087541;28;20146;-72
2023/04/08 03:28:58;;;;;;;26.63;18.23;;;;;;;5.34;100.00;100596.34;5067755;28;20089;-72
2023/04/08 03:31:24;;;;;;;24.25;17.35;;;;;;;5.40;100.00;100606.59;5085196;28;20039;-72
2023/04/08 03:33:50;;;;;;;23.27;17.20;;;;;;;5.32;100.00;100601.75;5067569;28;20020;-72
2023/04/08 03:36:15;;;;;;;26.13;17.42;;;;;;;5.36;100.00;100605.97;5085756;28;20437;-73
2023/04/08 03:38:41;;;;;;;26.15;18.20;;;;;;;5.33;100.00;100613.25;5084919;28;20287;-72
2023/04/08 03:41:06;;;;;;;28.80;20.23;;;;;;;5.22;100.00;100592.63;5085379;28;20038;-72
2023/04/08 03:43:32;;;;;;;26.33;18.10;;;;;;;5.42;100.00;100623.34;5085472;28;20081;-72
2023/04/08 03:45:57;;;;;;;27.55;19.05;;;;;;;5.36;100.00;100613.94;5084216;28;20113;-72
2023/04/08 03:48:22;;;;;;;28.25;18.65;;;;;;;5.41;100.00;100617.16;5085195;28;20077;-73
2023/04/08 03:50:48;;;;;;;25.60;18.27;;;;;;;5.37;100.00;100625.41;5085131;28;20024;-72
2023/04/08 03:53:13;;;;;;;29.42;19.40;;;;;;;5.30;100.00;100613.44;5085349;28;20742;-72
2023/04/08 03:55:39;;;;;;;25.98;17.92;;;;;;;5.36;100.00;100632.53;5066877;28;20491;-73
2023/04/08 03:58:04;;;;;;;26.38;18.25;;;;;;;5.33;100.00;100627.41;5086460;28;20088;-73
2023/04/08 04:00:30;;;;;;;31.20;20.90;;;;;;;5.31;100.00;100631.97;5085439;28;20040;-73
2023/04/08 04:02:56;;;;;;;35.10;21.13;;;;;;;5.35;100.00;100633.47;5083691;28;20066;-72
2023/04/08 04:05:21;;;;;;;48.15;29.00;;;;;;;5.33;100.00;100639.84;5085261;28;20024;-72
2023/04/08 04:07:47;;;;;;;49.25;28.58;;;;;;;5.33;100.00;100638.06;5066133;28;20020;-73
2023/04/08 04:10:12;;;;;;;43.92;27.63;;;;;;;5.30;100.00;100634.72;5085192;28;20031;-72
2023/04/08 04:12:38;;;;;;;41.03;25.17;;;;;;;5.27;100.00;100634.91;5067093;28;20027;-72
2023/04/08 04:15:04;;;;;;;37.10;25.15;;;;;;;5.33;100.00;100640.72;5067962;28;20607;-72
2023/04/08 04:17:29;;;;;;;44.05;27.95;;;;;;;5.37;100.00;100636.03;5084340;28;20024;-73
2023/04/08 04:19:55;;;;;;;41.72;26.75;;;;;;;5.22;100.00;100627.19;5068893;28;20533;-72
2023/04/08 04:22:20;;;;;;;39.33;25.80;;;;;;;5.34;100.00;100645.06;5067062;28;20043;-73
2023/04/08 04:24:49;;;;;;;36.90;24.13;;;;;;;5.29;100.00;100641.81;5066070;28;20034;-72
2023/04/08 04:27:16;;;;;;;31.65;22.33;;;;;;;5.28;100.00;100631.28;5066133;28;20126;-73
2023/04/08 04:29:42;;;;;;;35.78;23.10;;;;;;;5.33;100.00;100646.03;5066514;28;20369;-72
2023/04/08 04:32:08;;;;;;;31.20;22.20;;;;;;;5.30;100.00;100638.25;5067077;28;20085;-72
2023/04/08 04:34:33;;;;;;;31.92;21.83;;;;;;;5.23;100.00;100634.25;5083394;28;20032;-69
2023/04/08 04:36:59;;;;;;;32.10;21.52;;;;;;;5.33;100.00;100648.69;5084463;28;20016;-69
2023/04/08 04:39:25;;;;;;;32.00;21.30;;;;;;;5.31;100.00;100647.03;5089198;28;20353;-70
2023/04/08 04:41:50;;;;;;;34.35;21.90;;;;;;;5.32;100.00;100659.41;5085424;28;20108;-70
2023/04/08 04:44:16;;;;;;;30.75;21.13;;;;;;;5.35;100.00;100660.06;5086276;28;20028;-69
2023/04/08 04:46:42;;;;;;;31.70;20.67;;;;;;;5.36;100.00;100658.28;5084338;28;20040;-69
2023/04/08 04:49:07;;;;;;;30.50;21.80;;;;;;;5.27;100.00;100648.19;5092786;28;20048;-70
2023/04/08 04:51:33;;;;;;;29.42;21.13;;;;;;;5.32;100.00;100665.56;5091593;28;20055;-70
2023/04/08 04:53:58;;;;;;;29.35;20.73;;;;;;;5.24;100.00;100653.69;5091965;28;20111;-72
2023/04/08 04:56:25;;;;;;;33.15;21.73;;;;;;;5.36;100.00;100660.94;5088692;28;20062;-70
2023/04/08 04:58:50;;;;;;;32.38;22.33;;;;;;;5.16;100.00;100635.53;5094297;28;20063;-70
2023/04/08 05:01:16;;;;;;;31.08;21.42;;;;;;;5.32;100.00;100667.41;5092955;28;20083;-69
2023/04/08 05:03:41;;;;;;;32.85;22.48;;;;;;;5.28;100.00;100673.81;5090917;28;20031;-69
2023/04/08 05:06:07;;;;;;;30.90;21.08;;;;;;;5.28;100.00;100673.81;5089050;28;20028;-69
2023/04/08 05:08:32;;;;;;;32.55;21.83;;;;;;;5.28;100.00;100676.47;5092842;28;20547;-69
2023/04/08 05:11:00;;;;;;;29.10;20.73;;;;;;;5.29;100.00;100679.06;5094284;28;20475;-68
2023/04/08 05:13:27;;;;;;;32.58;22.05;;;;;;;5.29;100.00;100681.72;5068767;28;20111;-68
2023/04/08 05:15:52;;;;;;;35.25;22.00;;;;;;;5.26;100.00;100673.94;5087131;28;20399;-68
2023/04/08 05:18:18;;;;;;;28.80;20.70;;;;;;;5.35;100.00;100683.16;5087296;28;20039;-68
2023/04/08 05:20:44;;;;;;;32.72;21.73;;;;;;;5.35;100.00;100684.00;5068269;28;20028;-68
2023/04/08 05:23:09;;;;;;;29.45;20.02;;;;;;;5.19;100.00;100659.28;5086963;28;20036;-69
2023/04/08 05:25:35;;;;;;;31.20;20.88;;;;;;;5.25;100.00;100664.25;5086780;28;20024;-68
2023/04/08 05:28:01;;;;;;;31.50;21.02;;;;;;;5.37;100.00;100687.44;5067998;28;20032;-68
2023/04/08 05:30:26;;;;;;;30.90;21.50;;;;;;;5.36;100.00;100691.06;5086914;28;20024;-68
2023/04/08 05:32:52;;;;;;;31.35;21.52;;;;;;;5.30;100.00;100686.09;5067835;28;20036;-68
2023/04/08 05:35:17;;;;;;;29.80;20.50;;;;;;;5.33;100.00;100683.25;5084584;28;20106;-69
2023/04/08 05:37:43;;;;;;;32.90;21.02;;;;;;;5.43;100.00;100707.47;5086433;28;20035;-68
2023/04/08 05:40:08;;;;;;;31.30;21.52;;;;;;;5.29;100.00;100689.69;5086453;28;20024;-68
2023/04/08 05:42:34;;;;;;;28.33;19.27;;;;;;;5.44;100.00;100710.03;5086393;28;20078;-68
2023/04/08 05:44:59;;;;;;;28.50;19.00;;;;;;;5.48;100.00;100716.88;5086746;28;20031;-68
2023/04/08 05:47:25;;;;;;;28.17;19.73;;;;;;;5.46;100.00;100720.59;5086074;28;20024;-69
2023/04/08 05:49:51;;;;;;;28.63;19.95;;;;;;;5.37;100.00;100697.22;5086126;28;20028;-69
2023/04/08 05:52:16;;;;;;;29.65;21.08;;;;;;;5.42;100.00;100708.44;5085896;28;20455;-68
2023/04/08 05:54:42;;;;;;;29.90;20.95;;;;;;;5.47;100.00;100712.53;5086106;28;20069;-69
2023/04/08 05:57:08;;;;;;;26.52;19.25;;;;;;;5.52;100.00;100712.25;5086335;28;20056;-69
2023/04/08 05:59:34;;;;;;;30.35;19.88;;;;;;;5.39;100.00;100698.84;5067591;28;20071;-69
2023/04/08 06:01:59;;;;;;;29.95;20.80;;;;;;;5.49;100.00;100718.63;5084959;28;20063;-69
2023/04/08 06:04:25;;;;;;;28.92;19.95;;;;;;;5.42;100.00;100706.63;5067488;28;20038;-69
2023/04/08 06:06:50;;;;;;;28.90;20.35;;;;;;;5.46;100.00;100712.63;5085440;28;20024;-69
2023/04/08 06:09:16;;;;;;;28.63;19.60;;;;;;;5.52;100.00;100715.78;5067823;28;20023;-68
2023/04/08 06:11:41;;;;;;;27.30;20.08;;;;;;;5.52;100.00;100720.22;5085813;28;20387;-68
2023/04/08 06:14:07;;;;;;;29.60;22.10;;;;;;;5.45;100.00;100708.25;5067592;28;20028;-68
2023/04/08 06:16:32;;;;;;;27.33;20.48;;;;;;;5.52;100.00;100723.75;5083850;28;20039;-69
2023/04/08 06:18:58;;;;;;;29.60;21.30;;;;;;;5.54;100.00;100715.66;5064689;28;20076;-68
2023/04/08 06:21:23;;;;;;;28.55;20.88;;;;;;;5.51;100.00;100727.34;5064889;28;20028;-68
2023/04/08 06:23:49;;;;;;;27.30;19.60;;;;;;;5.43;100.00;100713.66;5084822;28;20024;-68
2023/04/08 06:26:15;;;;;;;30.92;20.70;;;;;;;5.56;100.00;100727.94;5084167;28;20032;-69
2023/04/08 06:28:40;;;;;;;27.90;20.35;;;;;;;5.53;100.00;100724.59;5084988;28;20066;-68
2023/04/08 06:31:05;;;;;;;29.83;19.83;;;;;;;5.56;100.00;100737.72;5084918;28;20463;-68
2023/04/08 06:33:31;;;;;;;28.55;19.25;;;;;;;5.60;100.00;100739.22;5084960;28;20028;-68
2023/04/08 06:36:04;;;;;;;25.63;19.05;;;;;;;5.63;100.00;100736.38;5085782;28;20024;-68
2023/04/08 06:38:30;;;;;;;28.35;20.27;;;;;;;5.66;100.00;100736.19;5084189;28;20121;-68
2023/04/08 06:41:01;;;;;;;27.55;19.77;;;;;;;5.66;100.00;100742.38;5085362;28;20028;-69
2023/04/08 06:43:26;;;;;;;27.40;19.58;;;;;;;5.70;100.00;100737.72;5085367;28;20036;-68
2023/04/08 06:45:52;;;;;;;27.50;20.02;;;;;;;5.69;100.00;100736.88;5085438;28;20085;-68
2023/04/08 06:48:18;;;;;;;26.38;19.20;;;;;;;5.73;100.00;100737.53;5066734;28;20082;-68
2023/04/08 06:50:43;;;;;;;28.17;20.48;;;;;;;5.67;100.00;100728.13;5084562;28;20085;-68
2023/04/08 06:53:09;;;;;;;28.95;20.77;;;;;;;5.75;100.00;100744.50;5085146;28;20060;-68
2023/04/08 06:55:34;;;;;;;31.50;21.33;;;;;;;5.64;100.00;100722.16;5066764;28;20035;-68
2023/04/08 06:58:01;;;;;;;28.08;19.88;;;;;;;5.81;100.00;100746.78;5085116;28;20466;-68
2023/04/08 07:00:26;;;;;;;30.55;21.95;;;;;;;5.86;100.00;100755.34;5084503;28;20039;-68
2023/04/08 07:02:52;;;;;;;27.77;20.92;;;;;;;5.86;100.00;100742.03;5084295;28;20044;-68
2023/04/08 07:05:17;;;;;;;27.83;21.17;;;;;;;5.92;100.00;100754.13;5084685;28;20031;-68
2023/04/08 07:07:43;;;;;;;27.40;20.98;;;;;;;5.94;100.00;100755.72;5085337;28;20502;-68
2023/04/08 07:10:09;;;;;;;32.03;21.77;;;;;;;5.90;100.00;100743.56;5085284;28;20019;-69
2023/04/08 07:12:34;;;;;;;29.95;21.40;;;;;;;6.01;100.00;100756.22;5084527;28;20051;-69
2023/04/08 07:15:00;;;;;;;28.42;21.05;;;;;;;6.02;100.00;100758.78;5085228;28;20522;-68
2023/04/08 07:17:25;;;;;;;28.98;21.73;;;;;;;6.03;100.00;100744.50;5084601;28;20066;-68
2023/04/08 07:19:50;;;;;;;31.50;21.60;;;;;;;6.10;100.00;100755.66;5084471;28;20028;-68
2023/04/08 07:22:16;;;;;;;32.00;23.15;;;;;;;6.16;100.00;100760.59;5084332;28;20043;-69
2023/04/08 07:24:44;;;;;;;30.85;21.70;;;;;;;6.22;100.00;100768.16;5084904;28;20023;-68
2023/04/08 07:27:10;;;;;;;31.30;21.65;;;;;;;6.29;100.00;100767.69;5084738;28;20028;-69
2023/04/08 07:29:35;;;;;;;28.83;19.77;;;;;;;6.35;100.00;100767.31;5083981;28;20080;-68
2023/04/08 07:32:01;;;;;;;28.73;20.58;;;;;;;6.38;100.00;100771.56;5084239;28;20110;-68
2023/04/08 07:34:26;;;;;;;27.08;19.30;;;;;;;6.38;100.00;100767.13;5066052;28;20027;-68
2023/04/08 07:36:52;;;;;;;27.20;20.25;;;;;;;6.46;100.00;100769.31;5084322;28;20031;-68
2023/04/08 07:39:17;;;;;;;27.58;19.80;;;;;;;6.43;100.00;100775.69;5084036;28;20032;-68
2023/04/08 07:41:42;;;;;;;26.80;19.65;;;;;;;6.46;100.00;100778.16;5066216;28;20024;-68
2023/04/08 07:44:08;;;;;;;27.40;20.85;;;;;;;6.45;100.00;100778.25;5084509;28;20020;-68
2023/04/08 07:46:37;;;;;;;27.23;20.13;;;;;;;6.40;100.00;100778.53;5084047;28;20542;-68
2023/04/08 07:49:03;;;;;;;32.15;22.92;;;;;;;6.35;100.00;100782.44;5084337;28;20024;-68
2023/04/08 07:51:28;;;;;;;32.67;23.17;;;;;;;6.41;100.00;100790.91;5083496;28;20031;-69
2023/04/08 07:53:54;;;;;;;30.95;22.55;;;;;;;6.41;100.00;100779.38;5084298;28;20024;-68
2023/04/08 07:56:21;;;;;;;33.85;24.20;;;;;;;6.49;100.00;100779.75;5084510;28;20055;-67
2023/04/08 07:58:47;;;;;;;33.08;22.80;;;;;;;6.48;100.00;100775.41;5085000;28;20031;-68
2023/04/08 08:01:21;;;;;;;35.85;24.40;;;;;;;6.48;100.00;100783.41;5083661;28;20044;-68
2023/04/08 08:03:50;;;;;;;32.50;22.42;;;;;;;6.51;100.00;100786.69;5066730;28;20051;-68
2023/04/08 08:06:16;;;;;;;32.30;22.35;;;;;;;6.54;100.00;100788.31;5085023;28;20138;-67
2023/04/08 08:08:42;;;;;;;30.75;22.83;;;;;;;6.52;100.00;100791.06;5084753;28;20669;-69
2023/04/08 08:11:08;;;;;;;30.48;22.30;;;;;;;6.53;100.00;100787.47;5084809;28;20443;-68
2023/04/08 08:13:33;;;;;;;30.73;22.50;;;;;;;6.53;100.00;100792.81;5066025;28;20039;-65
2023/04/08 08:15:59;;;;;;;31.45;23.15;;;;;;;6.38;100.00;100777.78;5084976;28;20027;-67
2023/04/08 08:18:24;;;;;;;33.15;22.20;;;;;;;6.50;100.00;100789.47;5084457;28;20035;-66
2023/04/08 08:20:50;;;;;;;37.60;23.27;;;;;;;6.54;100.00;100788.31;5085505;28;20076;-66
2023/04/08 08:23:15;;;;;;;40.03;24.27;;;;;;;6.56;100.00;100797.06;5085825;28;20110;-66
2023/04/08 08:25:41;;;;;;;27.90;21.30;;;;;;;6.61;100.00;100798.47;5087255;28;20528;-66
2023/04/08 08:28:06;;;;;;;29.77;21.77;;;;;;;6.60;100.00;100802.09;5068659;28;20030;-66
2023/04/08 08:30:32;;;;;;;27.15;20.35;;;;;;;6.63;100.00;100803.72;5078363;28;20066;-66
2023/04/08 08:33:00;;;;;;;27.02;19.58;;;;;;;6.65;100.00;100799.97;5087822;28;20117;-66
2023/04/08 08:35:26;;;;;;;26.73;19.42;;;;;;;6.66;100.00;100799.06;5088899;28;20542;-67
2023/04/08 08:37:51;;;;;;;28.40;21.15;;;;;;;6.68;100.00;100806.94;5089386;28;20051;-66
2023/04/08 08:40:17;;;;;;;29.25;20.42;;;;;;;6.67;100.00;100800.75;5087834;28;20020;-66
2023/04/08 08:42:51;;;;;;;26.90;19.90;;;;;;;6.73;100.00;100816.34;5089276;28;20027;-66
2023/04/08 08:45:17;;;;;;;;;;;;;;;6.74;98.87;100810.06;5088711;28;20039;-66
2023/04/08 08:47:43;;;;;;;24.80;17.90;;;;;;;6.72;98.90;100811.13;5090067;28;20274;-66
2023/04/08 08:50:09;;;;;;;26.30;18.77;;;;;;;6.66;96.74;100800.84;5089198;28;20020;-66
2023/04/08 08:52:34;;;;;;;24.65;18.02;;;;;;;6.66;97.51;100822.16;5088452;28;20031;-67
2023/04/08 08:55:00;;;;;;;26.25;18.55;;;;;;;6.65;97.83;100815.97;5088906;28;20778;-66
2023/04/08 08:57:26;;;;;;;23.67;18.38;;;;;;;6.57;98.85;100799.63;5069846;28;20032;-67
2023/04/08 08:59:51;;;;;;;25.80;18.33;;;;;;;6.65;99.62;100815.97;5090167;28;20086;-67
2023/04/08 09:02:25;;;;;;;25.13;17.83;;;;;;;6.68;100.00;100818.44;5088115;28;20084;-66
2023/04/08 09:04:57;;;;;;;26.40;19.73;;;;;;;6.73;100.00;100819.03;5087028;28;20019;-67
2023/04/08 09:07:26;;;;;;;26.17;19.10;;;;;;;6.79;100.00;100829.31;5086325;28;20032;-66
2023/04/08 09:09:53;;;;;;;26.13;19.02;;;;;;;6.83;100.00;100829.94;5090815;28;20054;-66
2023/04/08 09:12:19;;;;;;;21.25;16.25;;;;;;;6.84;99.15;100813.00;5088154;28;20384;-66
2023/04/08 09:14:45;;;;;;;23.63;17.23;;;;;;;6.80;98.95;100816.81;5088157;28;20027;-66
2023/04/08 09:17:10;;;;;;;20.88;15.88;;;;;;;6.81;99.00;100807.88;5088002;28;20032;-66
2023/04/08 09:19:36;;;;;;;21.67;15.85;;;;;;;6.93;98.71;100833.72;5088812;28;20074;-67
2023/04/08 09:22:09;;;;;;;20.65;16.38;;;;;;;6.90;98.48;100840.13;5087405;28;20039;-66
2023/04/08 09:24:38;;;;;;;21.75;16.90;;;;;;;6.86;97.84;100851.06;5070801;28;20032;-67
2023/04/08 09:27:04;;;;;;;22.20;16.05;;;;;;;6.85;98.22;100846.69;5088008;28;20024;-67
2023/04/08 09:29:30;;;;;;;22.58;16.73;;;;;;;6.87;98.54;100850.13;5087581;28;20032;-66
2023/04/08 09:31:57;;;;;;;26.27;19.27;;;;;;;6.88;97.38;100839.38;5087697;28;20379;-66
2023/04/08 09:34:23;;;;;;;22.35;17.27;;;;;;;6.94;96.79;100849.63;5087697;28;20035;-66
2023/04/08 09:36:50;;;;;;;20.90;17.02;;;;;;;6.89;97.96;100859.75;5087587;28;20028;-66
2023/04/08 09:39:16;;;;;;;22.60;17.08;;;;;;;6.84;97.24;100839.66;5070566;28;20097;-67
2023/04/08 09:41:42;;;;;;;24.88;18.73;;;;;;;6.89;97.18;100859.75;5087875;28;20023;-67
2023/04/08 09:44:10;;;;;;;22.48;16.88;;;;;;;6.84;97.92;100853.84;5087877;28;20023;-67
2023/04/08 09:46:50;;;;;;;25.13;17.75;;;;;;;6.83;98.23;100859.25;5088285;28;20028;-67
2023/04/08 09:49:26;;;;;;;23.40;17.38;;;;;;;6.80;98.23;100870.13;5086371;28;20047;-67
2023/04/08 09:52:08;;;;;;;22.05;16.63;;;;;;;6.79;97.89;100857.75;5090056;28;20081;-67
2023/04/08 09:54:56;;;;;;;25.38;18.08;;;;;;;6.77;99.10;100860.50;5086203;28;20089;-67
2023/04/08 09:57:40;;;;;;;22.73;17.60;;;;;;;6.79;99.98;100858.63;5087137;28;20024;-67
2023/04/08 10:00:09;;;;;;;25.17;17.83;;;;;;;6.83;99.88;100853.94;5087274;28;20679;-67
2023/04/08 10:02:55;;;;;;;21.95;16.42;;;;;;;6.93;98.62;100855.06;5086631;28;20146;-67
2023/04/08 10:05:21;;;;;;;21.90;17.17;;;;;;;6.95;97.95;100856.69;5085566;28;20047;-67
2023/04/08 10:07:47;;;;;;;26.27;18.10;;;;;;;6.86;98.68;100843.94;5087209;28;20024;-67
2023/04/08 10:10:13;;;;;;;23.80;18.27;;;;;;;6.92;99.35;100851.56;5087089;28;20035;-66
2023/04/08 10:12:39;;;;;;;25.98;19.33;;;;;;;6.90;99.89;100845.44;5087552;28;20502;-67
2023/04/08 10:15:31;;;;;;;24.00;17.35;;;;;;;7.09;98.92;100853.09;5086283;28;20093;-67
2023/04/08 10:18:06;;;;;;;22.58;18.10;;;;;;;7.16;99.34;100857.09;5086191;28;20024;-67
2023/04/08 10:20:34;;;;;;;21.58;17.10;;;;;;;7.18;100.00;100860.50;5067120;28;20024;-68
2023/04/08 10:23:12;;;;;;;23.02;17.75;;;;;;;7.25;100.00;100852.97;5067363;28;20031;-67
2023/04/08 10:25:45;;;;;;;21.38;16.17;;;;;;;7.29;100.00;100854.50;5089593;28;20122;-67
2023/04/08 10:28:11;;;;;;;22.08;16.83;;;;;;;7.34;100.00;100865.69;5085954;28;20431;-67
2023/04/08 10:30:40;;;;;;;20.30;15.55;;;;;;;7.29;98.75;100860.69;5086055;28;20027;-67
2023/04/08 10:33:14;;;;;;;19.15;15.27;;;;;;;7.33;97.68;100866.66;5087359;28;20040;-66
2023/04/08 10:35:45;;;;;;;19.55;15.88;;;;;;;7.28;98.02;100863.47;5069543;28;20036;-67
2023/04/08 10:38:12;;;;;;;20.63;16.33;;;;;;;7.22;99.08;100847.84;5087200;28;20116;-67
2023/04/08 10:40:40;;;;;;;22.38;15.90;;;;;;;7.33;99.45;100859.53;5083752;28;20028;-67
2023/04/08 10:43:06;;;;;;;20.95;16.48;;;;;;;7.39;100.00;100852.91;5086411;28;20039;-66
2023/04/08 10:45:32;;;;;;;23.30;16.73;;;;;;;7.45;99.69;100853.34;5087229;28;20184;-66
2023/04/08 10:48:16;;;;;;;19.58;15.88;;;;;;;7.40;98.13;100842.16;5086369;28;20020;-66
2023/04/08 10:50:43;;;;;;;19.83;16.08;;;;;;;7.51;97.22;100847.59;5085819;28;21113;-66
2023/04/08 10:53:10;;;;;;;16.85;14.27;;;;;;;7.63;96.20;100856.59;5086979;28;20070;-67
2023/04/08 10:55:35;;;;;;;17.10;15.05;;;;;;;7.69;95.92;100862.41;5086817;28;20396;-66
2023/04/08 10:58:19;;;;;;;17.65;13.98;;;;;;;7.76;94.80;100862.84;5086294;28;20032;-66
2023/04/08 11:00:45;;;;;;;17.67;14.65;;;;;;;7.77;95.71;100845.88;5071607;28;20575;-68
2023/04/08 11:03:10;;;;;;;18.58;14.05;;;;;;;7.91;95.61;100867.16;5087374;28;20118;-66
2023/04/08 11:05:37;;;;;;;18.23;14.82;;;;;;;7.97;95.04;100861.38;5086422;28;20045;-67
2023/04/08 11:08:04;;;;;;;16.25;13.82;;;;;;;8.04;94.77;100868.03;5092141;28;20430;-66
2023/04/08 11:10:36;;;;;;;17.00;13.52;;;;;;;8.05;94.33;100864.38;5086347;28;20022;-66